createdAt,value
2022-12-18T00:02:05.158Z,101808.16
2022-12-18T00:05:13.764Z,101801.09
2022-12-18T00:08:28.136Z,101822.66
2022-12-18T00:11:38.141Z,101823.81
2022-12-18T00:14:53.396Z,101837.59
2022-12-18T00:18:08.127Z,101842.03
2022-12-18T00:21:12.682Z,101844.00
2022-12-18T00:24:27.117Z,101837.78
2022-12-18T00:27:45.123Z,101866.72
2022-12-18T00:31:11.154Z,101865.22
2022-12-18T00:34:13.972Z,101861.00
2022-12-18T00:37:29.123Z,101867.72
2022-12-18T00:40:45.106Z,101884.97
2022-12-18T00:44:00.121Z,101875.62
2022-12-18T00:47:15.098Z,101883.50
2022-12-18T00:50:17.970Z,101888.25
2022-12-18T00:53:33.105Z,101890.09
2022-12-18T00:56:51.004Z,101891.06
2022-12-18T01:00:06.130Z,101898.31
2022-12-18T01:03:08.649Z,101904.91
2022-12-18T01:06:24.094Z,101916.06
2022-12-18T01:09:39.093Z,101908.34
2022-12-18T01:13:01.080Z,101919.06
2022-12-18T01:16:19.161Z,101931.19
2022-12-18T01:19:34.082Z,101919.06
2022-12-18T01:22:49.144Z,101923.81
2022-12-18T01:26:04.097Z,101928.09
2022-12-18T01:29:06.079Z,101931.87
2022-12-18T01:32:21.086Z,101929.91
2022-12-18T01:35:36.115Z,101934.31
2022-12-18T01:38:51.129Z,101937.75
2022-12-18T01:42:00.118Z,101941.84
2022-12-18T01:45:21.111Z,101941.56
2022-12-18T01:48:23.152Z,101938.75
2022-12-18T01:51:38.107Z,101940.09
2022-12-18T01:54:40.152Z,101949.94
2022-12-18T01:57:57.119Z,101961.75
2022-12-18T02:01:06.090Z,101959.13
2022-12-18T02:04:35.103Z,101962.09
2022-12-18T02:08:16.103Z,101962.56
2022-12-18T02:11:54.085Z,101964.69
2022-12-18T02:15:16.524Z,101972.25
2022-12-18T02:18:40.083Z,101973.22
2022-12-18T02:22:26.303Z,101982.75
2022-12-18T02:26:00.097Z,101984.75
2022-12-18T02:29:14.083Z,101975.87
2022-12-18T02:32:37.064Z,101968.66
2022-12-18T02:35:53.133Z,101995.91
2022-12-18T02:39:03.112Z,101995.78
2022-12-18T02:42:12.947Z,102007.09
2022-12-18T02:45:28.141Z,102010.38
2022-12-18T02:48:34.889Z,102005.12
2022-12-18T02:51:58.087Z,102006.75
2022-12-18T02:55:34.785Z,102011.38
2022-12-18T02:59:10.091Z,102017.94
2022-12-18T03:02:42.269Z,102020.88
2022-12-18T03:05:52.836Z,102028.44
2022-12-18T03:09:14.076Z,102031.22
2022-12-18T03:12:31.778Z,102033.03
2022-12-18T03:15:58.090Z,102037.13
2022-12-18T03:19:12.064Z,102044.38
2022-12-18T03:22:23.218Z,102047.16
2022-12-18T03:25:35.121Z,102046.81
2022-12-18T03:28:48.360Z,102049.94
2022-12-18T03:32:06.091Z,102053.69
2022-12-18T03:35:28.091Z,102056.00
2022-12-18T03:38:37.070Z,102060.47
2022-12-18T03:41:59.069Z,102054.38
2022-12-18T03:45:53.190Z,102077.19
2022-12-18T03:49:13.210Z,102088.72
2022-12-18T03:52:33.080Z,102082.47
2022-12-18T03:55:43.194Z,102084.13
2022-12-18T03:58:53.084Z,102078.03
2022-12-18T04:02:11.156Z,102047.63
2022-12-18T04:05:27.072Z,102073.09
2022-12-18T04:08:30.089Z,102082.59
2022-12-18T04:11:45.067Z,102088.81
2022-12-18T04:15:00.079Z,102092.69
2022-12-18T04:18:08.999Z,102092.88
2022-12-18T04:21:18.062Z,102089.59
2022-12-18T04:24:33.055Z,102098.59
2022-12-18T04:27:48.062Z,102102.69
2022-12-18T04:30:50.703Z,102102.81
2022-12-18T04:34:06.061Z,102104.25
2022-12-18T04:37:14.070Z,102097.03
2022-12-18T04:40:22.838Z,102096.16
2022-12-18T04:43:38.227Z,102118.97
2022-12-18T04:46:53.106Z,102119.06
2022-12-18T04:49:55.294Z,102119.97
2022-12-18T04:53:10.088Z,102130.91
2022-12-18T04:56:18.813Z,102139.44
2022-12-18T04:59:27.069Z,102134.66
2022-12-18T05:02:35.810Z,102146.69
2022-12-18T05:05:44.058Z,102152.25
2022-12-18T05:08:52.712Z,102149.78
2022-12-18T05:12:01.088Z,102155.66
2022-12-18T05:15:23.062Z,102165.75
2022-12-18T05:18:25.855Z,102167.19
2022-12-18T05:21:41.054Z,102166.00
2022-12-18T05:24:56.052Z,102159.06
2022-12-18T05:28:04.054Z,102159.06
2022-12-18T05:31:19.094Z,102170.94
2022-12-18T05:34:27.653Z,102178.69
2022-12-18T05:37:43.382Z,102186.47
2022-12-18T05:40:53.072Z,102181.81
2022-12-18T05:44:02.038Z,102193.59
2022-12-18T05:47:17.079Z,102190.88
2022-12-18T05:50:25.749Z,102195.72
2022-12-18T05:53:42.393Z,102202.25
2022-12-18T05:56:51.679Z,102208.16
2022-12-18T06:00:06.025Z,102202.06
2022-12-18T06:03:16.159Z,102207.19
2022-12-18T06:06:34.022Z,102203.75
2022-12-18T06:09:42.088Z,102212.94
2022-12-18T06:12:50.667Z,102211.00
2022-12-18T06:16:13.088Z,102218.62
2022-12-18T06:19:21.683Z,102217.13
2022-12-18T06:22:30.038Z,102214.38
2022-12-18T06:25:47.037Z,102211.75
2022-12-18T06:28:55.975Z,102221.56
2022-12-18T06:32:05.046Z,102223.00
2022-12-18T06:35:20.060Z,102242.66
2022-12-18T06:38:36.105Z,102256.87
2022-12-18T06:41:38.245Z,102257.19
2022-12-18T06:44:54.048Z,102266.00
2022-12-18T06:48:09.075Z,102272.94
2022-12-18T06:51:30.031Z,102271.81
2022-12-18T06:54:52.075Z,102264.25
2022-12-18T06:58:01.028Z,102271.94
2022-12-18T07:01:12.135Z,102270.44
2022-12-18T07:04:27.038Z,102280.66
2022-12-18T07:07:28.912Z,102295.78
2022-12-18T07:10:55.953Z,102290.38
2022-12-18T07:14:11.366Z,102296.28
2022-12-18T07:17:26.031Z,102313.59
2022-12-18T07:20:34.766Z,102309.19
2022-12-18T07:23:44.030Z,102314.16
2022-12-18T07:26:59.052Z,102322.38
2022-12-18T07:30:00.947Z,102321.81
2022-12-18T07:33:16.021Z,102333.06
2022-12-18T07:36:24.622Z,102344.38
2022-12-18T07:39:39.017Z,102345.94
2022-12-18T07:42:54.041Z,102345.47
2022-12-18T07:46:03.370Z,102349.06
2022-12-18T07:49:18.033Z,102346.22
2022-12-18T07:52:33.022Z,102352.37
2022-12-18T07:56:24.886Z,102356.50
2022-12-18T07:59:12.909Z,102373.69
2022-12-18T08:02:28.089Z,102362.78
2022-12-18T08:05:37.024Z,102384.62
2022-12-18T08:08:45.755Z,102386.94
2022-12-18T08:12:01.020Z,102387.84
2022-12-18T08:15:03.357Z,102398.56
2022-12-18T08:18:26.017Z,102400.94
2022-12-18T08:21:37.125Z,102410.03
2022-12-18T08:24:46.241Z,102391.66
2022-12-18T08:28:01.028Z,102399.16
2022-12-18T08:31:10.148Z,102404.16
2022-12-18T08:34:25.020Z,102414.56
2022-12-18T08:37:40.033Z,102412.16
2022-12-18T08:40:42.218Z,102404.09
2022-12-18T08:43:57.015Z,102416.16
2022-12-18T08:47:14.038Z,102403.88
2022-12-18T08:50:29.004Z,102413.47
2022-12-18T08:53:45.041Z,102422.44
2022-12-18T08:56:54.008Z,102413.59
2022-12-18T09:00:04.116Z,102415.59
2022-12-18T09:03:13.047Z,102429.94
2022-12-18T09:06:30.013Z,102427.81
2022-12-18T09:09:40.379Z,102430.50
2022-12-18T09:12:52.007Z,102433.47
2022-12-18T09:16:14.015Z,102441.03
2022-12-18T09:19:22.729Z,102439.38
2022-12-18T09:22:31.015Z,102443.50
2022-12-18T09:25:46.018Z,102428.47
2022-12-18T09:29:02.023Z,102439.16
2022-12-18T09:32:22.202Z,102443.91
2022-12-18T09:35:24.422Z,102423.91
2022-12-18T09:38:39.279Z,102435.50
2022-12-18T09:42:04.045Z,102430.78
2022-12-18T09:45:16.052Z,102438.31
2022-12-18T09:48:39.373Z,102442.22
2022-12-18T09:52:00.090Z,102437.41
2022-12-18T09:55:37.163Z,102444.22
2022-12-18T09:59:02.014Z,102447.91
2022-12-18T10:02:34.077Z,102443.16
2022-12-18T10:05:42.509Z,102435.44
2022-12-18T10:08:56.991Z,102435.22
2022-12-18T10:12:22.000Z,102427.91
2022-12-18T10:15:53.384Z,102417.69
2022-12-18T10:19:11.032Z,102421.44
2022-12-18T10:22:51.023Z,102436.94
2022-12-18T10:26:09.989Z,102437.72
2022-12-18T10:29:26.028Z,102433.87
2022-12-18T10:32:34.677Z,102421.53
2022-12-18T10:35:44.031Z,102419.44
2022-12-18T10:38:58.993Z,102421.53
2022-12-18T10:42:25.995Z,102416.75
2022-12-18T10:45:35.025Z,102418.56
2022-12-18T10:48:56.014Z,102418.09
2022-12-18T10:52:07.157Z,102429.50
2022-12-18T10:55:24.987Z,102419.28
2022-12-18T10:58:37.983Z,102418.44
2022-12-18T11:01:50.260Z,102415.88
2022-12-18T11:05:09.592Z,102418.44
2022-12-18T11:08:22.333Z,102423.06
2022-12-18T11:11:38.989Z,102423.16
2022-12-18T11:14:51.331Z,102411.97
2022-12-18T11:18:13.717Z,102399.81
2022-12-18T11:21:16.469Z,102409.87
2022-12-18T11:24:37.980Z,102409.03
2022-12-18T11:27:41.174Z,102406.16
2022-12-18T11:30:56.056Z,102407.00
2022-12-18T11:34:29.997Z,102417.88
2022-12-18T11:37:48.975Z,102409.25
2022-12-18T11:41:11.013Z,102392.94
2022-12-18T11:44:22.985Z,102401.22
2022-12-18T11:48:12.008Z,102397.75
2022-12-18T11:51:42.986Z,102400.38
2022-12-18T11:54:50.986Z,102395.28
2022-12-18T11:58:46.987Z,102387.38
2022-12-18T12:02:03.069Z,102389.47
2022-12-18T12:05:19.708Z,102394.12
2022-12-18T12:09:01.988Z,102373.97
2022-12-18T12:12:35.979Z,102382.91
2022-12-18T12:16:08.006Z,102382.97
2022-12-18T12:19:44.976Z,102381.44
2022-12-18T12:23:07.717Z,102387.03
2022-12-18T12:26:39.003Z,102384.47
2022-12-18T12:30:10.398Z,102381.84
2022-12-18T12:33:45.024Z,102387.31
2022-12-18T12:37:37.954Z,102383.19
2022-12-18T12:41:02.493Z,102386.00
2022-12-18T12:44:24.985Z,102388.31
2022-12-18T12:47:40.340Z,102373.28
2022-12-18T12:50:57.976Z,102383.50
2022-12-18T12:54:08.030Z,102399.91
2022-12-18T12:57:44.973Z,102405.84
2022-12-18T13:01:10.054Z,102407.66
2022-12-18T13:05:15.987Z,102413.13
2022-12-18T13:08:30.954Z,102412.94
2022-12-18T13:11:57.838Z,102418.31
2022-12-18T13:15:29.994Z,102418.50
2022-12-18T13:18:46.039Z,102426.13
2022-12-18T13:21:56.912Z,102411.97
2022-12-18T13:25:39.993Z,102422.47
2022-12-18T13:28:54.971Z,102419.84
2022-12-18T13:32:09.982Z,102428.28
2022-12-18T13:35:25.017Z,102429.47
2022-12-18T13:38:39.875Z,102436.75
2022-12-18T13:42:14.951Z,102433.84
2022-12-18T13:46:12.982Z,102442.56
2022-12-18T13:49:15.246Z,102444.13
2022-12-18T13:52:34.005Z,102454.03
2022-12-18T13:55:46.263Z,102449.09
2022-12-18T13:59:18.567Z,102454.06
2022-12-18T14:02:36.083Z,102450.16
2022-12-18T14:06:05.966Z,102461.69
2022-12-18T14:09:27.133Z,102465.53
2022-12-18T14:12:43.982Z,102464.75
2022-12-18T14:15:55.962Z,102452.88
2022-12-18T14:19:19.972Z,102461.31
2022-12-18T14:22:28.990Z,102462.81
2022-12-18T14:25:38.979Z,102467.63
2022-12-18T14:28:54.991Z,102463.72
2022-12-18T14:32:11.789Z,102464.09
2022-12-18T14:35:28.057Z,102463.28
2022-12-18T14:38:40.681Z,102463.97
2022-12-18T14:41:48.953Z,102467.28
2022-12-18T14:45:45.229Z,102476.88
2022-12-18T14:48:54.448Z,102475.41
2022-12-18T14:52:08.960Z,102476.78
2022-12-18T14:55:22.147Z,102486.16
2022-12-18T14:58:38.014Z,102501.34
2022-12-18T15:02:21.213Z,102510.22
2022-12-18T15:05:39.824Z,102503.97
2022-12-18T15:08:56.125Z,102496.38
2022-12-18T15:12:00.459Z,102511.53
2022-12-18T15:15:43.039Z,102525.19
2022-12-18T15:18:53.890Z,102524.84
2022-12-18T15:22:10.397Z,102524.31
2022-12-18T15:25:43.422Z,102528.41
2022-12-18T15:29:01.431Z,102533.50
2022-12-18T15:32:12.984Z,102536.09
2022-12-18T15:35:31.301Z,102541.50
2022-12-18T15:38:34.079Z,102545.28
2022-12-18T15:41:50.306Z,102556.16
2022-12-18T15:44:58.901Z,102552.50
2022-12-18T15:48:08.404Z,102555.91
2022-12-18T15:51:24.856Z,102561.63
2022-12-18T15:54:34.131Z,102562.75
2022-12-18T15:57:42.773Z,102572.78
2022-12-18T16:00:58.515Z,102584.44
2022-12-18T16:04:08.459Z,102583.25
2022-12-18T16:07:30.527Z,102589.81
2022-12-18T16:10:33.451Z,102579.91
2022-12-18T16:13:50.585Z,102583.22
2022-12-18T16:17:19.443Z,102587.81
2022-12-18T16:20:23.962Z,102590.75
2022-12-18T16:23:41.693Z,102583.59
2022-12-18T16:26:45.167Z,102592.78
2022-12-18T16:30:01.417Z,102600.00
2022-12-18T16:33:18.433Z,102608.88
2022-12-18T16:36:27.276Z,102616.63
2022-12-18T16:39:45.399Z,102608.34
2022-12-18T16:42:48.249Z,102612.56
2022-12-18T16:46:06.459Z,102614.97
2022-12-18T16:49:09.819Z,102620.69
2022-12-18T16:52:27.398Z,102620.31
2022-12-18T16:55:43.536Z,102635.41
2022-12-18T16:59:04.396Z,102635.69
2022-12-18T17:02:28.645Z,102628.81
2022-12-18T17:05:31.755Z,102625.81
2022-12-18T17:08:47.350Z,102630.00
2022-12-18T17:12:04.513Z,102617.00
2022-12-18T17:15:19.947Z,102612.66
2022-12-18T17:18:37.443Z,102604.22
2022-12-18T17:21:55.375Z,102617.38
2022-12-18T17:25:12.452Z,102604.50
2022-12-18T17:28:21.294Z,102601.09
2022-12-18T17:31:40.275Z,102607.97
2022-12-18T17:34:50.989Z,102612.56
2022-12-18T17:38:05.953Z,102605.78
2022-12-18T17:41:21.387Z,102614.66
2022-12-18T17:44:30.350Z,102609.53
2022-12-18T17:47:47.990Z,102611.66
2022-12-18T17:51:11.309Z,102625.63
2022-12-18T17:54:20.447Z,102634.63
2022-12-18T17:57:35.924Z,102626.72
2022-12-18T18:00:46.401Z,102629.94
2022-12-18T18:03:55.937Z,102627.63
2022-12-18T18:07:11.398Z,102625.28
2022-12-18T18:10:20.077Z,102619.06
2022-12-18T18:13:39.761Z,102619.50
2022-12-18T18:17:04.951Z,102634.44
2022-12-18T18:20:23.402Z,102628.50
2022-12-18T18:23:33.652Z,102628.62
2022-12-18T18:26:42.952Z,102620.66
2022-12-18T18:29:59.143Z,102634.69
2022-12-18T18:33:14.941Z,102634.44
2022-12-18T18:36:18.188Z,102620.63
2022-12-18T18:39:34.287Z,102629.22
2022-12-18T18:42:50.254Z,102640.41
2022-12-18T18:46:04.356Z,102636.25
2022-12-18T18:49:14.263Z,102649.69
2022-12-18T18:52:23.403Z,102645.56
2022-12-18T18:55:42.287Z,102652.75
2022-12-18T18:58:51.486Z,102647.09
2022-12-18T19:02:00.724Z,102658.03
2022-12-18T19:05:20.340Z,102654.44
2022-12-18T19:08:24.998Z,102670.19
2022-12-18T19:11:41.112Z,102659.44
2022-12-18T19:14:51.367Z,102667.72
2022-12-18T19:18:13.153Z,102671.06
2022-12-18T19:21:15.850Z,102664.59
2022-12-18T19:24:32.386Z,102667.63
2022-12-18T19:27:41.108Z,102674.41
2022-12-18T19:30:59.391Z,102692.88
2022-12-18T19:34:09.760Z,102682.97
2022-12-18T19:37:20.306Z,102692.09
2022-12-18T19:40:36.207Z,102701.91
2022-12-18T19:43:38.986Z,102697.34
2022-12-18T19:46:58.203Z,102700.50
2022-12-18T19:50:08.052Z,102698.03
2022-12-18T19:53:24.443Z,102711.00
2022-12-18T19:56:42.492Z,102708.53
2022-12-18T19:59:51.908Z,102713.09
2022-12-18T20:03:18.385Z,102673.38
2022-12-18T20:06:37.948Z,102695.56
2022-12-18T20:10:00.412Z,102714.91
2022-12-18T20:13:19.402Z,102725.53
2022-12-18T20:16:28.293Z,102716.97
2022-12-18T20:19:50.343Z,102725.81
2022-12-18T20:22:53.215Z,102726.50
2022-12-18T20:26:09.161Z,102724.59
2022-12-18T20:29:18.191Z,102723.88
2022-12-18T20:32:37.110Z,102719.44
2022-12-18T20:35:46.295Z,102739.91
2022-12-18T20:39:04.026Z,102740.31
2022-12-18T20:42:14.018Z,102733.97
2022-12-18T20:45:22.765Z,102738.78
2022-12-18T20:48:33.058Z,102747.50
2022-12-18T20:51:50.288Z,102744.31
2022-12-18T20:55:09.358Z,102748.59
2022-12-18T20:58:25.296Z,102751.22
2022-12-18T21:01:33.914Z,102758.09
2022-12-18T21:04:50.263Z,102750.50
2022-12-18T21:07:58.920Z,102757.56
2022-12-18T21:11:17.577Z,102758.94
2022-12-18T21:14:28.915Z,102765.72
2022-12-18T21:17:51.161Z,102772.50
2022-12-18T21:20:59.597Z,102768.75
2022-12-18T21:24:16.020Z,102763.38
2022-12-18T21:27:24.881Z,102773.03
2022-12-18T21:30:39.948Z,102767.50
2022-12-18T21:33:48.945Z,102763.91
2022-12-18T21:37:01.884Z,102763.06
2022-12-18T21:40:11.900Z,102751.19
2022-12-18T21:43:26.926Z,102756.13
2022-12-18T21:46:28.915Z,102748.25
2022-12-18T21:49:43.878Z,102764.56
2022-12-18T21:52:58.957Z,102747.16
2022-12-18T21:56:02.172Z,102746.31
2022-12-18T21:59:16.921Z,102756.69
2022-12-18T22:02:27.085Z,102747.44
2022-12-18T22:05:35.523Z,102753.25
2022-12-18T22:08:44.907Z,102744.69
2022-12-18T22:11:59.871Z,102744.13
2022-12-18T22:15:21.373Z,102749.00
2022-12-18T22:18:37.161Z,102747.59
2022-12-18T22:21:54.865Z,102748.00
2022-12-18T22:25:09.864Z,102743.34
2022-12-18T22:28:24.893Z,102749.16
2022-12-18T22:31:33.947Z,102754.25
2022-12-18T22:34:49.886Z,102754.53
2022-12-18T22:38:05.878Z,102754.25
2022-12-18T22:41:14.899Z,102752.44
2022-12-18T22:44:29.878Z,102758.94
2022-12-18T22:47:39.161Z,102753.97
2022-12-18T22:50:55.984Z,102765.41
2022-12-18T22:54:07.568Z,102746.50
2022-12-18T22:57:15.854Z,102766.69
2022-12-18T23:00:30.902Z,102771.09
2022-12-18T23:03:45.955Z,102775.75
2022-12-18T23:06:48.045Z,102775.50
2022-12-18T23:10:02.858Z,102777.72
2022-12-18T23:13:17.889Z,102781.84
2022-12-18T23:16:21.199Z,102774.12
2022-12-18T23:19:48.577Z,102775.37
2022-12-18T23:22:51.091Z,102757.41
2022-12-18T23:26:11.858Z,102778.97
2022-12-18T23:29:26.879Z,102772.34
2022-12-18T23:32:34.864Z,102776.06
2022-12-18T23:35:44.470Z,102764.06
2022-12-18T23:39:01.860Z,102772.06
2022-12-18T23:42:10.862Z,102775.25
2022-12-18T23:45:22.484Z,102777.59
2022-12-18T23:48:30.842Z,102762.13
2022-12-18T23:51:45.881Z,102771.94
2022-12-18T23:55:00.875Z,102767.38
2022-12-18T23:58:27.871Z,102778.69
